sensor_id;sensor_type;location;lat;lon;timestamp;P1;durP1;ratioP1;P2;durP2;ratioP2
26977;SDS011;56314;48.088;11.642;2023-08-24T00:02:10;9.32;;;6.80;;
26977;SDS011;56314;48.088;11.642;2023-08-24T00:04:35;7.50;;;6.45;;
26977;SDS011;56314;48.088;11.642;2023-08-24T00:07:01;8.60;;;7.55;;
26977;SDS011;56314;48.088;11.642;2023-08-24T00:09:26;7.97;;;7.18;;
26977;SDS011;56314;48.088;11.642;2023-08-24T00:11:52;12.27;;;7.75;;
26977;SDS011;56314;48.088;11.642;2023-08-24T00:14:18;8.75;;;7.85;;
26977;SDS011;56314;48.088;11.642;2023-08-24T00:16:43;9.88;;;7.38;;
26977;SDS011;56314;48.088;11.642;2023-08-24T00:19:09;8.88;;;7.40;;
26977;SDS011;56314;48.088;11.642;2023-08-24T00:21:34;9.32;;;7.65;;
26977;SDS011;56314;48.088;11.642;2023-08-24T00:24:00;8.75;;;7.85;;
26977;SDS011;56314;48.088;11.642;2023-08-24T00:26:25;9.38;;;8.40;;
26977;SDS011;56314;48.088;11.642;2023-08-24T00:28:50;10.13;;;8.15;;
26977;SDS011;56314;48.088;11.642;2023-08-24T00:31:16;12.52;;;8.00;;
26977;SDS011;56314;48.088;11.642;2023-08-24T00:33:42;11.60;;;7.72;;
26977;SDS011;56314;48.088;11.642;2023-08-24T00:36:08;9.05;;;8.13;;
26977;SDS011;56314;48.088;11.642;2023-08-24T00:38:33;10.48;;;8.07;;
26977;SDS011;56314;48.088;11.642;2023-08-24T00:40:59;9.30;;;7.85;;
26977;SDS011;56314;48.088;11.642;2023-08-24T00:43:25;13.93;;;7.78;;
26977;SDS011;56314;48.088;11.642;2023-08-24T00:45:51;9.88;;;7.93;;
26977;SDS011;56314;48.088;11.642;2023-08-24T00:48:17;10.13;;;8.32;;
26977;SDS011;56314;48.088;11.642;2023-08-24T00:50:43;11.30;;;8.38;;
26977;SDS011;56314;48.088;11.642;2023-08-24T00:53:09;9.45;;;7.53;;
26977;SDS011;56314;48.088;11.642;2023-08-24T00:55:35;9.57;;;7.90;;
26977;SDS011;56314;48.088;11.642;2023-08-24T00:58:00;10.32;;;8.15;;
26977;SDS011;56314;48.088;11.642;2023-08-24T01:00:28;9.02;;;7.57;;
26977;SDS011;56314;48.088;11.642;2023-08-24T01:02:53;10.38;;;8.25;;
26977;SDS011;56314;48.088;11.642;2023-08-24T01:05:19;9.38;;;8.32;;
26977;SDS011;56314;48.088;11.642;2023-08-24T01:07:44;10.40;;;8.63;;
26977;SDS011;56314;48.088;11.642;2023-08-24T01:10:10;13.90;;;8.88;;
26977;SDS011;56314;48.088;11.642;2023-08-24T01:18:33;13.07;;;9.02;;
26977;SDS011;56314;48.088;11.642;2023-08-24T01:21:01;9.70;;;8.60;;
26977;SDS011;56314;48.088;11.642;2023-08-24T01:23:31;9.27;;;7.75;;
26977;SDS011;56314;48.088;11.642;2023-08-24T01:28:57;12.95;;;8.43;;
26977;SDS011;56314;48.088;11.642;2023-08-24T01:31:24;13.35;;;9.43;;
26977;SDS011;56314;48.088;11.642;2023-08-24T01:33:49;11.63;;;8.55;;
26977;SDS011;56314;48.088;11.642;2023-08-24T01:36:15;9.93;;;8.30;;
26977;SDS011;56314;48.088;11.642;2023-08-24T01:38:44;8.95;;;7.63;;
26977;SDS011;56314;48.088;11.642;2023-08-24T01:41:20;11.15;;;8.50;;
26977;SDS011;56314;48.088;11.642;2023-08-24T01:43:52;8.43;;;7.55;;
26977;SDS011;56314;48.088;11.642;2023-08-24T01:46:19;14.43;;;8.38;;
26977;SDS011;56314;48.088;11.642;2023-08-24T01:48:46;9.10;;;7.93;;
26977;SDS011;56314;48.088;11.642;2023-08-24T01:51:12;10.32;;;8.57;;
26977;SDS011;56314;48.088;11.642;2023-08-24T01:53:39;10.68;;;8.50;;
26977;SDS011;56314;48.088;11.642;2023-08-24T01:56:09;13.80;;;8.85;;
26977;SDS011;56314;48.088;11.642;2023-08-24T01:58:38;11.32;;;8.52;;
26977;SDS011;56314;48.088;11.642;2023-08-24T02:01:07;11.15;;;8.88;;
26977;SDS011;56314;48.088;11.642;2023-08-24T02:03:33;11.00;;;9.07;;
26977;SDS011;56314;48.088;11.642;2023-08-24T02:05:58;11.85;;;7.80;;
26977;SDS011;56314;48.088;11.642;2023-08-24T02:08:24;10.32;;;8.02;;
26977;SDS011;56314;48.088;11.642;2023-08-24T02:10:49;10.90;;;9.23;;
26977;SDS011;56314;48.088;11.642;2023-08-24T02:13:14;10.23;;;8.30;;
26977;SDS011;56314;48.088;11.642;2023-08-24T02:15:40;10.50;;;9.07;;
26977;SDS011;56314;48.088;11.642;2023-08-24T02:18:06;12.77;;;8.98;;
26977;SDS011;56314;48.088;11.642;2023-08-24T02:20:38;11.90;;;8.50;;
26977;SDS011;56314;48.088;11.642;2023-08-24T02:23:04;9.70;;;8.30;;
26977;SDS011;56314;48.088;11.642;2023-08-24T02:25:30;11.63;;;9.00;;
26977;SDS011;56314;48.088;11.642;2023-08-24T02:27:56;11.25;;;8.70;;
26977;SDS011;56314;48.088;11.642;2023-08-24T02:30:21;9.80;;;8.82;;
26977;SDS011;56314;48.088;11.642;2023-08-24T02:32:47;13.50;;;7.70;;
26977;SDS011;56314;48.088;11.642;2023-08-24T02:35:12;12.43;;;8.82;;
26977;SDS011;56314;48.088;11.642;2023-08-24T02:37:38;10.50;;;7.88;;
26977;SDS011;56314;48.088;11.642;2023-08-24T02:40:04;11.25;;;8.15;;
26977;SDS011;56314;48.088;11.642;2023-08-24T02:42:31;9.65;;;8.43;;
26977;SDS011;56314;48.088;11.642;2023-08-24T02:44:57;11.05;;;8.23;;
26977;SDS011;56314;48.088;11.642;2023-08-24T02:47:23;12.88;;;8.70;;
26977;SDS011;56314;48.088;11.642;2023-08-24T02:49:48;10.65;;;8.93;;
26977;SDS011;56314;48.088;11.642;2023-08-24T02:52:14;11.00;;;8.90;;
26977;SDS011;56314;48.088;11.642;2023-08-24T02:54:39;11.40;;;8.68;;
26977;SDS011;56314;48.088;11.642;2023-08-24T02:57:04;11.90;;;9.90;;
26977;SDS011;56314;48.088;11.642;2023-08-24T02:59:30;13.15;;;9.55;;
26977;SDS011;56314;48.088;11.642;2023-08-24T03:01:55;11.60;;;9.13;;
26977;SDS011;56314;48.088;11.642;2023-08-24T03:04:21;11.98;;;9.75;;
26977;SDS011;56314;48.088;11.642;2023-08-24T03:06:47;10.52;;;9.43;;
26977;SDS011;56314;48.088;11.642;2023-08-24T03:09:12;10.05;;;8.80;;
26977;SDS011;56314;48.088;11.642;2023-08-24T03:11:37;12.00;;;10.00;;
26977;SDS011;56314;48.088;11.642;2023-08-24T03:14:03;15.45;;;10.20;;
26977;SDS011;56314;48.088;11.642;2023-08-24T03:16:29;11.30;;;9.57;;
26977;SDS011;56314;48.088;11.642;2023-08-24T03:18:54;13.50;;;9.60;;
26977;SDS011;56314;48.088;11.642;2023-08-24T03:21:20;12.25;;;9.90;;
26977;SDS011;56314;48.088;11.642;2023-08-24T03:23:45;11.48;;;9.40;;
26977;SDS011;56314;48.088;11.642;2023-08-24T03:26:10;11.15;;;9.98;;
26977;SDS011;56314;48.088;11.642;2023-08-24T03:28:36;13.80;;;9.85;;
26977;SDS011;56314;48.088;11.642;2023-08-24T03:31:02;11.18;;;9.73;;
26977;SDS011;56314;48.088;11.642;2023-08-24T03:33:27;11.15;;;9.23;;
26977;SDS011;56314;48.088;11.642;2023-08-24T03:35:53;12.43;;;8.93;;
26977;SDS011;56314;48.088;11.642;2023-08-24T03:38:18;11.95;;;9.88;;
26977;SDS011;56314;48.088;11.642;2023-08-24T03:40:44;11.07;;;9.23;;
26977;SDS011;56314;48.088;11.642;2023-08-24T03:43:09;10.07;;;9.07;;
26977;SDS011;56314;48.088;11.642;2023-08-24T03:45:35;10.30;;;9.20;;
26977;SDS011;56314;48.088;11.642;2023-08-24T03:48:01;11.02;;;9.93;;
26977;SDS011;56314;48.088;11.642;2023-08-24T03:50:26;10.73;;;9.05;;
26977;SDS011;56314;48.088;11.642;2023-08-24T03:52:52;13.45;;;9.05;;
26977;SDS011;56314;48.088;11.642;2023-08-24T03:55:19;15.05;;;9.82;;
26977;SDS011;56314;48.088;11.642;2023-08-24T03:57:45;15.52;;;9.00;;
26977;SDS011;56314;48.088;11.642;2023-08-24T04:00:11;9.80;;;8.80;;
26977;SDS011;56314;48.088;11.642;2023-08-24T04:02:45;11.55;;;8.98;;
26977;SDS011;56314;48.088;11.642;2023-08-24T04:05:11;11.05;;;9.27;;
26977;SDS011;56314;48.088;11.642;2023-08-24T04:07:37;13.30;;;10.07;;
26977;SDS011;56314;48.088;11.642;2023-08-24T04:10:03;12.52;;;9.63;;
26977;SDS011;56314;48.088;11.642;2023-08-24T04:12:32;11.07;;;9.30;;
26977;SDS011;56314;48.088;11.642;2023-08-24T04:14:58;10.57;;;8.88;;
26977;SDS011;56314;48.088;11.642;2023-08-24T04:17:24;14.30;;;9.80;;
26977;SDS011;56314;48.088;11.642;2023-08-24T04:19:49;11.88;;;9.43;;
26977;SDS011;56314;48.088;11.642;2023-08-24T04:22:15;11.68;;;9.15;;
26977;SDS011;56314;48.088;11.642;2023-08-24T04:24:40;9.63;;;8.57;;
26977;SDS011;56314;48.088;11.642;2023-08-24T04:27:06;10.38;;;8.98;;
26977;SDS011;56314;48.088;11.642;2023-08-24T04:29:31;11.63;;;9.98;;
26977;SDS011;56314;48.088;11.642;2023-08-24T04:31:57;14.18;;;9.93;;
26977;SDS011;56314;48.088;11.642;2023-08-24T04:34:22;10.63;;;9.55;;
26977;SDS011;56314;48.088;11.642;2023-08-24T04:36:48;13.77;;;10.00;;
26977;SDS011;56314;48.088;11.642;2023-08-24T04:39:13;10.15;;;9.07;;
26977;SDS011;56314;48.088;11.642;2023-08-24T04:41:39;12.20;;;9.52;;
26977;SDS011;56314;48.088;11.642;2023-08-24T04:44:04;11.00;;;9.10;;
26977;SDS011;56314;48.088;11.642;2023-08-24T04:46:29;9.38;;;8.38;;
26977;SDS011;56314;48.088;11.642;2023-08-24T04:48:55;12.65;;;8.43;;
26977;SDS011;56314;48.088;11.642;2023-08-24T04:51:20;10.85;;;9.18;;
26977;SDS011;56314;48.088;11.642;2023-08-24T04:53:45;12.93;;;9.63;;
26977;SDS011;56314;48.088;11.642;2023-08-24T04:56:11;10.88;;;8.65;;
26977;SDS011;56314;48.088;11.642;2023-08-24T04:58:36;12.50;;;9.20;;
26977;SDS011;56314;48.088;11.642;2023-08-24T05:01:01;11.07;;;9.15;;
26977;SDS011;56314;48.088;11.642;2023-08-24T05:03:27;10.93;;;9.18;;
26977;SDS011;56314;48.088;11.642;2023-08-24T05:05:52;11.32;;;8.95;;
26977;SDS011;56314;48.088;11.642;2023-08-24T05:08:17;13.07;;;9.50;;
26977;SDS011;56314;48.088;11.642;2023-08-24T05:10:43;11.88;;;9.25;;
26977;SDS011;56314;48.088;11.642;2023-08-24T05:13:08;10.15;;;8.40;;
26977;SDS011;56314;48.088;11.642;2023-08-24T05:15:34;11.18;;;9.23;;
26977;SDS011;56314;48.088;11.642;2023-08-24T05:17:59;14.52;;;8.80;;
26977;SDS011;56314;48.088;11.642;2023-08-24T05:20:25;11.27;;;9.23;;
26977;SDS011;56314;48.088;11.642;2023-08-24T05:22:51;11.40;;;9.07;;
26977;SDS011;56314;48.088;11.642;2023-08-24T05:25:19;12.75;;;8.77;;
26977;SDS011;56314;48.088;11.642;2023-08-24T05:27:45;9.88;;;8.88;;
26977;SDS011;56314;48.088;11.642;2023-08-24T05:30:11;12.48;;;8.88;;
26977;SDS011;56314;48.088;11.642;2023-08-24T05:32:36;11.65;;;8.70;;
26977;SDS011;56314;48.088;11.642;2023-08-24T05:35:04;10.45;;;9.13;;
26977;SDS011;56314;48.088;11.642;2023-08-24T05:37:32;11.23;;;9.23;;
26977;SDS011;56314;48.088;11.642;2023-08-24T05:39:59;15.93;;;9.30;;
26977;SDS011;56314;48.088;11.642;2023-08-24T05:42:25;13.07;;;9.80;;
26977;SDS011;56314;48.088;11.642;2023-08-24T05:44:50;12.27;;;10.90;;
26977;SDS011;56314;48.088;11.642;2023-08-24T05:47:16;14.20;;;10.25;;
26977;SDS011;56314;48.088;11.642;2023-08-24T05:49:41;15.23;;;11.50;;
26977;SDS011;56314;48.088;11.642;2023-08-24T05:52:06;12.65;;;9.82;;
26977;SDS011;56314;48.088;11.642;2023-08-24T05:54:32;12.88;;;10.98;;
26977;SDS011;56314;48.088;11.642;2023-08-24T05:56:57;15.70;;;10.98;;
26977;SDS011;56314;48.088;11.642;2023-08-24T05:59:25;12.82;;;11.25;;
26977;SDS011;56314;48.088;11.642;2023-08-24T06:01:53;14.10;;;10.27;;
26977;SDS011;56314;48.088;11.642;2023-08-24T06:04:19;11.77;;;10.35;;
26977;SDS011;56314;48.088;11.642;2023-08-24T06:06:44;14.63;;;10.02;;
26977;SDS011;56314;48.088;11.642;2023-08-24T06:09:10;12.65;;;10.68;;
26977;SDS011;56314;48.088;11.642;2023-08-24T06:11:35;10.82;;;9.73;;
26977;SDS011;56314;48.088;11.642;2023-08-24T06:14:00;12.43;;;11.02;;
26977;SDS011;56314;48.088;11.642;2023-08-24T06:16:26;14.63;;;9.75;;
26977;SDS011;56314;48.088;11.642;2023-08-24T06:18:51;11.65;;;10.27;;
26977;SDS011;56314;48.088;11.642;2023-08-24T06:21:17;12.55;;;9.80;;
26977;SDS011;56314;48.088;11.642;2023-08-24T06:23:42;12.98;;;10.07;;
26977;SDS011;56314;48.088;11.642;2023-08-24T06:26:09;10.50;;;8.93;;
26977;SDS011;56314;48.088;11.642;2023-08-24T06:28:34;10.73;;;9.50;;
26977;SDS011;56314;48.088;11.642;2023-08-24T06:31:00;11.18;;;8.85;;
26977;SDS011;56314;48.088;11.642;2023-08-24T06:33:28;9.82;;;8.70;;
26977;SDS011;56314;48.088;11.642;2023-08-24T06:35:55;13.98;;;8.80;;
26977;SDS011;56314;48.088;11.642;2023-08-24T06:38:21;9.98;;;8.55;;
26977;SDS011;56314;48.088;11.642;2023-08-24T06:40:47;15.93;;;9.15;;
26977;SDS011;56314;48.088;11.642;2023-08-24T06:43:12;11.38;;;8.77;;
26977;SDS011;56314;48.088;11.642;2023-08-24T06:45:37;9.52;;;8.52;;
26977;SDS011;56314;48.088;11.642;2023-08-24T06:48:03;11.27;;;8.25;;
26977;SDS011;56314;48.088;11.642;2023-08-24T06:50:30;9.35;;;8.30;;
26977;SDS011;56314;48.088;11.642;2023-08-24T06:52:56;8.57;;;7.25;;
26977;SDS011;56314;48.088;11.642;2023-08-24T06:55:21;9.15;;;7.72;;
26977;SDS011;56314;48.088;11.642;2023-08-24T06:57:48;11.98;;;7.72;;
26977;SDS011;56314;48.088;11.642;2023-08-24T07:00:16;11.68;;;7.63;;
26977;SDS011;56314;48.088;11.642;2023-08-24T07:02:42;9.27;;;7.30;;
26977;SDS011;56314;48.088;11.642;2023-08-24T07:05:07;9.35;;;8.20;;
26977;SDS011;56314;48.088;11.642;2023-08-24T07:07:34;8.95;;;6.80;;
26977;SDS011;56314;48.088;11.642;2023-08-24T07:09:59;7.93;;;7.13;;
26977;SDS011;56314;48.088;11.642;2023-08-24T07:12:25;11.13;;;7.22;;
26977;SDS011;56314;48.088;11.642;2023-08-24T07:14:50;9.07;;;6.60;;
26977;SDS011;56314;48.088;11.642;2023-08-24T07:17:16;7.68;;;6.88;;
26977;SDS011;56314;48.088;11.642;2023-08-24T07:19:41;8.65;;;6.55;;
26977;SDS011;56314;48.088;11.642;2023-08-24T07:22:06;10.45;;;6.78;;
26977;SDS011;56314;48.088;11.642;2023-08-24T07:24:33;9.20;;;6.68;;
26977;SDS011;56314;48.088;11.642;2023-08-24T07:26:58;9.65;;;6.88;;
26977;SDS011;56314;48.088;11.642;2023-08-24T07:29:24;10.35;;;7.68;;
26977;SDS011;56314;48.088;11.642;2023-08-24T07:31:49;8.85;;;7.20;;
26977;SDS011;56314;48.088;11.642;2023-08-24T07:34:14;11.57;;;7.40;;
26977;SDS011;56314;48.088;11.642;2023-08-24T07:36:40;9.13;;;6.25;;
26977;SDS011;56314;48.088;11.642;2023-08-24T07:39:07;7.95;;;7.03;;
26977;SDS011;56314;48.088;11.642;2023-08-24T07:41:33;9.77;;;6.72;;
26977;SDS011;56314;48.088;11.642;2023-08-24T07:43:58;10.38;;;7.53;;
26977;SDS011;56314;48.088;11.642;2023-08-24T07:46:23;8.57;;;7.28;;
26977;SDS011;56314;48.088;11.642;2023-08-24T07:48:49;8.93;;;7.05;;
26977;SDS011;56314;48.088;11.642;2023-08-24T07:51:15;8.68;;;7.30;;
26977;SDS011;56314;48.088;11.642;2023-08-24T07:53:40;14.13;;;7.00;;
26977;SDS011;56314;48.088;11.642;2023-08-24T07:56:05;7.82;;;6.53;;
26977;SDS011;56314;48.088;11.642;2023-08-24T07:58:31;7.85;;;6.53;;
26977;SDS011;56314;48.088;11.642;2023-08-24T08:00:57;9.60;;;6.65;;
26977;SDS011;56314;48.088;11.642;2023-08-24T08:03:24;9.32;;;6.82;;
26977;SDS011;56314;48.088;11.642;2023-08-24T08:05:49;8.77;;;6.47;;
26977;SDS011;56314;48.088;11.642;2023-08-24T08:08:15;8.75;;;6.97;;
26977;SDS011;56314;48.088;11.642;2023-08-24T08:10:41;9.90;;;7.13;;
26977;SDS011;56314;48.088;11.642;2023-08-24T08:13:07;9.77;;;6.55;;
26977;SDS011;56314;48.088;11.642;2023-08-24T08:15:33;11.68;;;6.82;;
26977;SDS011;56314;48.088;11.642;2023-08-24T08:17:59;9.43;;;6.82;;
26977;SDS011;56314;48.088;11.642;2023-08-24T08:20:24;10.23;;;5.88;;
26977;SDS011;56314;48.088;11.642;2023-08-24T08:22:50;8.82;;;7.50;;
26977;SDS011;56314;48.088;11.642;2023-08-24T08:25:15;9.20;;;6.28;;
26977;SDS011;56314;48.088;11.642;2023-08-24T08:27:44;9.43;;;6.68;;
26977;SDS011;56314;48.088;11.642;2023-08-24T08:30:09;9.00;;;7.10;;
26977;SDS011;56314;48.088;11.642;2023-08-24T08:32:35;6.43;;;5.82;;
26977;SDS011;56314;48.088;11.642;2023-08-24T08:35:00;9.15;;;6.53;;
26977;SDS011;56314;48.088;11.642;2023-08-24T08:37:27;7.78;;;6.50;;
26977;SDS011;56314;48.088;11.642;2023-08-24T08:39:52;8.43;;;6.40;;
26977;SDS011;56314;48.088;11.642;2023-08-24T08:42:18;10.20;;;6.93;;
26977;SDS011;56314;48.088;11.642;2023-08-24T08:44:45;7.07;;;6.20;;
26977;SDS011;56314;48.088;11.642;2023-08-24T08:47:11;7.90;;;6.32;;
26977;SDS011;56314;48.088;11.642;2023-08-24T08:49:44;11.25;;;6.15;;
26977;SDS011;56314;48.088;11.642;2023-08-24T08:52:12;8.52;;;6.15;;
26977;SDS011;56314;48.088;11.642;2023-08-24T08:54:38;6.80;;;5.43;;
26977;SDS011;56314;48.088;11.642;2023-08-24T08:57:03;11.43;;;6.22;;
26977;SDS011;56314;48.088;11.642;2023-08-24T08:59:29;7.80;;;5.72;;
26977;SDS011;56314;48.088;11.642;2023-08-24T09:01:59;7.00;;;5.90;;
26977;SDS011;56314;48.088;11.642;2023-08-24T09:04:29;6.43;;;5.80;;
26977;SDS011;56314;48.088;11.642;2023-08-24T09:06:57;6.60;;;5.90;;
26977;SDS011;56314;48.088;11.642;2023-08-24T09:09:23;13.70;;;6.00;;
26977;SDS011;56314;48.088;11.642;2023-08-24T09:11:51;8.65;;;5.32;;
26977;SDS011;56314;48.088;11.642;2023-08-24T09:14:16;12.88;;;5.95;;
26977;SDS011;56314;48.088;11.642;2023-08-24T09:16:41;8.32;;;5.50;;
26977;SDS011;56314;48.088;11.642;2023-08-24T09:19:10;6.50;;;5.22;;
26977;SDS011;56314;48.088;11.642;2023-08-24T09:21:37;5.97;;;5.45;;
26977;SDS011;56314;48.088;11.642;2023-08-24T09:24:03;7.28;;;5.65;;
26977;SDS011;56314;48.088;11.642;2023-08-24T09:26:32;6.18;;;5.57;;
26977;SDS011;56314;48.088;11.642;2023-08-24T09:29:14;6.75;;;5.32;;
26977;SDS011;56314;48.088;11.642;2023-08-24T09:31:41;7.15;;;5.65;;
26977;SDS011;56314;48.088;11.642;2023-08-24T09:34:11;10.80;;;5.70;;
26977;SDS011;56314;48.088;11.642;2023-08-24T09:36:37;7.40;;;5.50;;
26977;SDS011;56314;48.088;11.642;2023-08-24T09:39:03;7.28;;;5.00;;
26977;SDS011;56314;48.088;11.642;2023-08-24T09:44:14;5.60;;;5.03;;
26977;SDS011;56314;48.088;11.642;2023-08-24T09:46:42;7.88;;;5.45;;
26977;SDS011;56314;48.088;11.642;2023-08-24T09:49:08;8.80;;;5.28;;
26977;SDS011;56314;48.088;11.642;2023-08-24T09:51:35;6.68;;;5.45;;
26977;SDS011;56314;48.088;11.642;2023-08-24T09:54:02;6.57;;;5.35;;
26977;SDS011;56314;48.088;11.642;2023-08-24T09:56:31;6.22;;;5.63;;
26977;SDS011;56314;48.088;11.642;2023-08-24T09:59:01;9.10;;;5.25;;
26977;SDS011;56314;48.088;11.642;2023-08-24T10:01:32;5.85;;;5.35;;
26977;SDS011;56314;48.088;11.642;2023-08-24T10:03:58;8.25;;;5.32;;
26977;SDS011;56314;48.088;11.642;2023-08-24T10:06:25;6.45;;;5.75;;
26977;SDS011;56314;48.088;11.642;2023-08-24T10:08:54;6.43;;;5.13;;
26977;SDS011;56314;48.088;11.642;2023-08-24T10:11:26;9.30;;;5.07;;
26977;SDS011;56314;48.088;11.642;2023-08-24T10:13:57;7.13;;;5.15;;
26977;SDS011;56314;48.088;11.642;2023-08-24T10:16:32;8.57;;;5.45;;
26977;SDS011;56314;48.088;11.642;2023-08-24T10:18:59;5.00;;;4.60;;
26977;SDS011;56314;48.088;11.642;2023-08-24T10:21:26;7.13;;;5.65;;
26977;SDS011;56314;48.088;11.642;2023-08-24T10:23:53;9.63;;;5.43;;
26977;SDS011;56314;48.088;11.642;2023-08-24T10:26:22;9.20;;;6.22;;
26977;SDS011;56314;48.088;11.642;2023-08-24T10:28:49;7.25;;;5.30;;
26977;SDS011;56314;48.088;11.642;2023-08-24T10:31:15;5.63;;;5.13;;
26977;SDS011;56314;48.088;11.642;2023-08-24T10:33:41;6.35;;;5.38;;
26977;SDS011;56314;48.088;11.642;2023-08-24T10:36:09;6.88;;;5.10;;
26977;SDS011;56314;48.088;11.642;2023-08-24T10:38:35;7.47;;;4.53;;
26977;SDS011;56314;48.088;11.642;2023-08-24T10:41:07;5.32;;;4.80;;
26977;SDS011;56314;48.088;11.642;2023-08-24T10:43:39;9.20;;;5.65;;
26977;SDS011;56314;48.088;11.642;2023-08-24T10:46:12;6.60;;;4.82;;
26977;SDS011;56314;48.088;11.642;2023-08-24T10:53:48;4.97;;;4.47;;
26977;SDS011;56314;48.088;11.642;2023-08-24T10:56:17;15.63;;;5.55;;
26977;SDS011;56314;48.088;11.642;2023-08-24T10:58:43;6.38;;;4.95;;
26977;SDS011;56314;48.088;11.642;2023-08-24T11:01:16;5.85;;;4.50;;
26977;SDS011;56314;48.088;11.642;2023-08-24T11:03:48;5.88;;;4.60;;
26977;SDS011;56314;48.088;11.642;2023-08-24T11:06:19;10.90;;;4.40;;
26977;SDS011;56314;48.088;11.642;2023-08-24T11:08:48;6.95;;;4.28;;
26977;SDS011;56314;48.088;11.642;2023-08-24T11:11:23;5.15;;;4.65;;
26977;SDS011;56314;48.088;11.642;2023-08-24T11:19:10;7.10;;;3.90;;
26977;SDS011;56314;48.088;11.642;2023-08-24T11:21:38;6.72;;;3.88;;
26977;SDS011;56314;48.088;11.642;2023-08-24T11:24:04;6.72;;;4.35;;
26977;SDS011;56314;48.088;11.642;2023-08-24T11:26:30;5.60;;;4.53;;
26977;SDS011;56314;48.088;11.642;2023-08-24T11:28:56;4.30;;;3.90;;
26977;SDS011;56314;48.088;11.642;2023-08-24T11:31:23;8.60;;;4.15;;
26977;SDS011;56314;48.088;11.642;2023-08-24T11:33:54;5.82;;;3.95;;
26977;SDS011;56314;48.088;11.642;2023-08-24T11:36:21;7.80;;;4.35;;
26977;SDS011;56314;48.088;11.642;2023-08-24T11:38:48;5.30;;;4.00;;
26977;SDS011;56314;48.088;11.642;2023-08-24T11:41:15;8.73;;;4.00;;
26977;SDS011;56314;48.088;11.642;2023-08-24T11:43:45;5.07;;;4.00;;
26977;SDS011;56314;48.088;11.642;2023-08-24T11:46:19;4.90;;;4.35;;
26977;SDS011;56314;48.088;11.642;2023-08-24T11:48:45;7.65;;;3.75;;
26977;SDS011;56314;48.088;11.642;2023-08-24T11:51:11;7.50;;;3.78;;
26977;SDS011;56314;48.088;11.642;2023-08-24T11:53:41;9.55;;;3.95;;
26977;SDS011;56314;48.088;11.642;2023-08-24T11:56:10;5.40;;;4.55;;
26977;SDS011;56314;48.088;11.642;2023-08-24T11:58:40;5.28;;;4.03;;
26977;SDS011;56314;48.088;11.642;2023-08-24T12:01:10;5.40;;;3.88;;
26977;SDS011;56314;48.088;11.642;2023-08-24T12:03:37;4.20;;;3.80;;
26977;SDS011;56314;48.088;11.642;2023-08-24T12:06:10;6.97;;;3.60;;
26977;SDS011;56314;48.088;11.642;2023-08-24T12:08:40;6.03;;;4.00;;
26977;SDS011;56314;48.088;11.642;2023-08-24T12:11:19;9.05;;;3.83;;
26977;SDS011;56314;48.088;11.642;2023-08-24T12:13:50;6.82;;;4.25;;
26977;SDS011;56314;48.088;11.642;2023-08-24T12:16:18;5.88;;;4.05;;
26977;SDS011;56314;48.088;11.642;2023-08-24T12:18:54;10.38;;;4.70;;
26977;SDS011;56314;48.088;11.642;2023-08-24T12:21:21;5.07;;;4.05;;
26977;SDS011;56314;48.088;11.642;2023-08-24T12:24:00;5.97;;;4.18;;
26977;SDS011;56314;48.088;11.642;2023-08-24T12:26:36;5.75;;;4.13;;
26977;SDS011;56314;48.088;11.642;2023-08-24T12:29:05;8.80;;;4.10;;
26977;SDS011;56314;48.088;11.642;2023-08-24T12:31:34;6.00;;;4.10;;
26977;SDS011;56314;48.088;11.642;2023-08-24T12:34:03;9.55;;;4.25;;
26977;SDS011;56314;48.088;11.642;2023-08-24T12:36:31;5.57;;;4.28;;
26977;SDS011;56314;48.088;11.642;2023-08-24T12:38:58;6.30;;;4.57;;
26977;SDS011;56314;48.088;11.642;2023-08-24T12:41:24;7.05;;;4.32;;
26977;SDS011;56314;48.088;11.642;2023-08-24T12:43:50;7.38;;;4.20;;
26977;SDS011;56314;48.088;11.642;2023-08-24T12:46:17;10.40;;;4.22;;
26977;SDS011;56314;48.088;11.642;2023-08-24T12:48:42;9.23;;;4.25;;
26977;SDS011;56314;48.088;11.642;2023-08-24T12:51:07;8.57;;;3.95;;
26977;SDS011;56314;48.088;11.642;2023-08-24T12:53:33;11.38;;;4.45;;
26977;SDS011;56314;48.088;11.642;2023-08-24T12:55:58;5.57;;;4.38;;
26977;SDS011;56314;48.088;11.642;2023-08-24T12:58:24;4.82;;;3.35;;
26977;SDS011;56314;48.088;11.642;2023-08-24T13:00:50;7.75;;;4.13;;
26977;SDS011;56314;48.088;11.642;2023-08-24T13:03:15;6.45;;;3.92;;
26977;SDS011;56314;48.088;11.642;2023-08-24T13:05:40;6.93;;;4.05;;
26977;SDS011;56314;48.088;11.642;2023-08-24T13:08:06;8.23;;;4.15;;
26977;SDS011;56314;48.088;11.642;2023-08-24T13:10:31;9.57;;;4.30;;
26977;SDS011;56314;48.088;11.642;2023-08-24T13:12:57;7.35;;;4.10;;
26977;SDS011;56314;48.088;11.642;2023-08-24T13:15:23;7.78;;;4.20;;
26977;SDS011;56314;48.088;11.642;2023-08-24T13:17:48;8.00;;;4.20;;
26977;SDS011;56314;48.088;11.642;2023-08-24T13:20:13;6.90;;;4.05;;
26977;SDS011;56314;48.088;11.642;2023-08-24T13:22:39;9.60;;;4.18;;
26977;SDS011;56314;48.088;11.642;2023-08-24T13:25:04;8.02;;;3.97;;
26977;SDS011;56314;48.088;11.642;2023-08-24T13:27:30;10.50;;;4.57;;
26977;SDS011;56314;48.088;11.642;2023-08-24T13:29:56;6.95;;;3.95;;
26977;SDS011;56314;48.088;11.642;2023-08-24T13:32:25;5.18;;;3.70;;
26977;SDS011;56314;48.088;11.642;2023-08-24T13:34:50;10.73;;;4.75;;
26977;SDS011;56314;48.088;11.642;2023-08-24T13:37:16;8.45;;;4.80;;
26977;SDS011;56314;48.088;11.642;2023-08-24T13:39:42;7.40;;;4.07;;
26977;SDS011;56314;48.088;11.642;2023-08-24T13:42:08;11.07;;;4.32;;
26977;SDS011;56314;48.088;11.642;2023-08-24T13:44:33;8.00;;;4.35;;
26977;SDS011;56314;48.088;11.642;2023-08-24T13:46:58;7.68;;;3.75;;
26977;SDS011;56314;48.088;11.642;2023-08-24T13:49:24;9.45;;;4.03;;
26977;SDS011;56314;48.088;11.642;2023-08-24T13:51:49;9.65;;;4.45;;
26977;SDS011;56314;48.088;11.642;2023-08-24T13:54:15;6.55;;;4.25;;
26977;SDS011;56314;48.088;11.642;2023-08-24T13:56:41;9.38;;;4.53;;
26977;SDS011;56314;48.088;11.642;2023-08-24T13:59:08;10.30;;;4.82;;
26977;SDS011;56314;48.088;11.642;2023-08-24T14:01:33;13.32;;;4.90;;
26977;SDS011;56314;48.088;11.642;2023-08-24T14:03:58;6.88;;;4.75;;
26977;SDS011;56314;48.088;11.642;2023-08-24T14:06:24;8.05;;;4.45;;
26977;SDS011;56314;48.088;11.642;2023-08-24T14:08:49;6.75;;;4.25;;
26977;SDS011;56314;48.088;11.642;2023-08-24T14:11:14;6.05;;;3.70;;
26977;SDS011;56314;48.088;11.642;2023-08-24T14:13:41;10.73;;;4.43;;
26977;SDS011;56314;48.088;11.642;2023-08-24T14:16:07;8.10;;;4.40;;
26977;SDS011;56314;48.088;11.642;2023-08-24T14:18:32;11.82;;;4.55;;
26977;SDS011;56314;48.088;11.642;2023-08-24T14:21:01;6.72;;;3.97;;
26977;SDS011;56314;48.088;11.642;2023-08-24T14:23:27;8.95;;;4.70;;
26977;SDS011;56314;48.088;11.642;2023-08-24T14:25:52;5.82;;;4.28;;
26977;SDS011;56314;48.088;11.642;2023-08-24T14:28:18;11.20;;;4.53;;
26977;SDS011;56314;48.088;11.642;2023-08-24T14:30:45;8.45;;;4.32;;
26977;SDS011;56314;48.088;11.642;2023-08-24T14:33:10;6.20;;;4.03;;
26977;SDS011;56314;48.088;11.642;2023-08-24T14:35:36;6.88;;;4.07;;
26977;SDS011;56314;48.088;11.642;2023-08-24T14:38:01;12.13;;;4.80;;
26977;SDS011;56314;48.088;11.642;2023-08-24T14:40:26;13.18;;;4.53;;
26977;SDS011;56314;48.088;11.642;2023-08-24T14:42:52;6.18;;;4.63;;
26977;SDS011;56314;48.088;11.642;2023-08-24T14:45:19;9.55;;;4.38;;
26977;SDS011;56314;48.088;11.642;2023-08-24T14:47:45;11.68;;;4.47;;